Terminal Aerodrome Forecast
Issued by NWS Charleston, WV

Current Version | Previous Version | Graphics & Text | Print | Product List | Glossary On
Versions: 1 2 3 4 5 6 7 8 9 10 11 12 13 14 15 16 17 18 19 20 21 22 23 24 25
000
FTUS41 KRLX 301733
TAFHTS
TAF
KHTS 301733Z 3018/0118 00000KT P6SM -RA OVC090
     FM302100 05004KT 5SM SHRA VCTS OVC010CB
     FM010000 12005KT P6SM -SHRA VCTS OVC019CB
     FM010900 18005KT P6SM -SHRA OVC020
     FM011600 23007KT P6SM -SHRA VCTS BKN030CB=

USA.gov is the U.S. government's official web portal to all federal, state and local government web resources and services.